createdAt,value
2022-10-23T00:03:02.199Z,10.7
2022-10-23T00:08:01.991Z,10.3
2022-10-23T00:13:01.540Z,10.0
2022-10-23T00:18:01.511Z,9.1
2022-10-23T00:23:01.547Z,9.4
2022-10-23T00:28:01.895Z,9.1
2022-10-23T00:38:01.588Z,9.3
2022-10-23T00:43:01.520Z,9.8
2022-10-23T00:48:01.551Z,9.4
2022-10-23T00:53:01.516Z,9.2
2022-10-23T00:58:01.558Z,9.6
2022-10-23T01:03:01.571Z,9.4
2022-10-23T01:08:01.547Z,9.1
2022-10-23T01:13:01.511Z,9.6
2022-10-23T01:18:01.525Z,11.3
2022-10-23T01:23:01.529Z,12.7
2022-10-23T01:28:01.410Z,14.5
2022-10-23T01:33:01.411Z,16.6
2022-10-23T01:38:01.556Z,17.5
2022-10-23T01:43:01.518Z,17.2
2022-10-23T01:48:01.529Z,16.4
2022-10-23T01:53:01.529Z,16.6
2022-10-23T02:03:01.540Z,17.4
2022-10-23T02:08:01.536Z,18.5
2022-10-23T02:13:01.521Z,20.7
2022-10-23T02:18:01.523Z,21.0
2022-10-23T02:23:01.552Z,20.3
2022-10-23T02:28:01.491Z,19.9
2022-10-23T02:33:01.508Z,19.7
2022-10-23T02:38:01.484Z,19.5
2022-10-23T02:48:01.516Z,21.2
2022-10-23T02:53:01.465Z,21.1
2022-10-23T02:58:01.445Z,22.1
2022-10-23T03:03:01.432Z,21.5
2022-10-23T03:08:01.474Z,22.2
2022-10-23T03:13:01.438Z,22.4
2022-10-23T03:19:01.525Z,23.2
2022-10-23T03:24:01.565Z,22.5
2022-10-23T03:29:01.545Z,22.7
2022-10-23T03:34:09.200Z,21.8
2022-10-23T03:39:01.540Z,21.4
2022-10-23T03:44:01.758Z,21.6
2022-10-23T03:49:01.590Z,22.2
2022-10-23T03:54:01.607Z,22.8
2022-10-23T03:59:01.560Z,22.6
2022-10-23T04:04:01.598Z,22.4
2022-10-23T04:09:01.711Z,23.8
2022-10-23T04:14:01.536Z,24.2
2022-10-23T04:19:01.524Z,23.6
2022-10-23T04:24:01.563Z,25.8
2022-10-23T04:29:01.592Z,27.5
2022-10-23T04:34:01.639Z,27.9
2022-10-23T04:39:01.547Z,28.4
2022-10-23T04:44:01.472Z,29.8
2022-10-23T04:49:01.526Z,29.5
2022-10-23T04:54:01.649Z,29.9
2022-10-23T04:59:01.566Z,30.2
2022-10-23T05:09:01.636Z,31.4
2022-10-23T05:14:01.512Z,32.4
2022-10-23T05:24:01.532Z,32.5
2022-10-23T05:29:01.539Z,34.8
2022-10-23T05:34:01.518Z,33.5
2022-10-23T05:39:03.302Z,32.8
2022-10-23T05:44:01.516Z,33.0
2022-10-23T05:49:01.549Z,33.4
2022-10-23T05:54:01.575Z,31.9
2022-10-23T05:59:01.615Z,33.2
2022-10-23T06:04:01.554Z,34.1
2022-10-23T06:09:01.544Z,35.8
2022-10-23T06:14:01.536Z,36.9
2022-10-23T06:19:01.540Z,39.1
2022-10-23T06:24:01.212Z,39.8
2022-10-23T06:29:01.562Z,41.3
2022-10-23T06:34:01.597Z,41.1
2022-10-23T06:39:01.535Z,41.2
2022-10-23T06:44:01.577Z,40.5
2022-10-23T06:49:02.386Z,41.7
2022-10-23T06:54:01.533Z,41.6
2022-10-23T06:59:01.407Z,42.5
2022-10-23T07:04:01.505Z,43.5
2022-10-23T07:09:02.114Z,44.6
2022-10-23T07:14:01.522Z,44.7
2022-10-23T07:19:01.615Z,45.8
2022-10-23T07:24:01.516Z,46.5
2022-10-23T07:34:01.546Z,46.4
2022-10-23T07:39:01.539Z,47.2
2022-10-23T07:44:02.039Z,46.3
2022-10-23T07:49:01.940Z,45.1
2022-10-23T07:54:01.602Z,44.8
2022-10-23T07:59:01.940Z,43.8
2022-10-23T08:04:01.513Z,42.0
2022-10-23T08:09:03.703Z,40.2
2022-10-23T08:14:01.536Z,38.6
2022-10-23T08:19:02.277Z,36.1
2022-10-23T08:24:02.176Z,34.9
2022-10-23T08:29:01.518Z,33.0
2022-10-23T08:34:01.593Z,31.8
2022-10-23T08:39:01.561Z,30.2
2022-10-23T08:44:01.420Z,29.7
2022-10-23T08:49:01.638Z,27.9
2022-10-23T08:55:01.724Z,27.1
2022-10-23T09:00:05.083Z,25.0
2022-10-23T09:05:01.577Z,24.0
2022-10-23T09:10:14.247Z,22.5
2022-10-23T09:15:11.962Z,20.7
2022-10-23T09:20:17.537Z,19.2
2022-10-23T09:25:01.965Z,19.0
2022-10-23T09:30:03.013Z,18.0
2022-10-23T09:35:02.875Z,16.4
2022-10-23T09:40:01.524Z,15.5
2022-10-23T09:45:02.333Z,14.8
2022-10-23T09:50:01.552Z,14.6
2022-10-23T09:55:14.546Z,14.9
2022-10-23T10:00:14.367Z,32.7
2022-10-23T10:05:01.515Z,33.9
2022-10-23T10:10:01.541Z,36.8
2022-10-23T10:15:17.169Z,42.9
2022-10-23T10:20:03.654Z,43.2
2022-10-23T10:25:01.538Z,25.8
2022-10-23T10:30:07.303Z,24.6
2022-10-23T10:36:01.469Z,21.4
2022-10-23T10:41:01.395Z,14.9
2022-10-23T10:46:17.348Z,13.6
2022-10-23T10:51:01.569Z,12.9
2022-10-23T10:56:01.495Z,13.8
2022-10-23T11:01:01.558Z,14.0
2022-10-23T11:11:01.465Z,14.3
2022-10-23T11:16:01.424Z,14.7
2022-10-23T11:21:01.430Z,14.6
2022-10-23T11:26:19.653Z,14.4
2022-10-23T11:31:01.413Z,14.5
2022-10-23T11:36:01.485Z,14.2
2022-10-23T11:41:01.428Z,14.3
2022-10-23T11:46:01.590Z,14.0
2022-10-23T11:51:02.853Z,14.3
2022-10-23T11:56:01.542Z,13.8
2022-10-23T12:01:01.565Z,13.6
2022-10-23T12:06:04.173Z,13.1
2022-10-23T12:11:01.640Z,12.3
2022-10-23T12:16:01.575Z,11.6
2022-10-23T12:21:01.579Z,11.9
2022-10-23T12:26:01.584Z,11.8
2022-10-23T12:31:01.459Z,11.1
2022-10-23T12:36:01.540Z,10.8
2022-10-23T12:46:01.556Z,11.1
2022-10-23T12:56:01.560Z,11.0
2022-10-23T13:01:01.681Z,11.1
2022-10-23T13:06:01.552Z,11.2
2022-10-23T13:11:01.623Z,10.8
2022-10-23T13:16:01.458Z,11.0
2022-10-23T13:26:01.544Z,11.1
2022-10-23T13:31:01.515Z,11.0
2022-10-23T13:36:01.535Z,11.2
2022-10-23T13:41:01.564Z,10.8
2022-10-23T13:46:01.664Z,11.7
2022-10-23T13:51:01.554Z,11.4
2022-10-23T13:57:01.521Z,11.0
2022-10-23T14:07:01.561Z,11.6
2022-10-23T14:12:01.544Z,12.3
2022-10-23T14:22:01.573Z,14.1
2022-10-23T14:27:01.621Z,14.0
2022-10-23T14:32:02.016Z,14.5
2022-10-23T14:37:08.642Z,14.9
2022-10-23T14:42:01.455Z,16.0
2022-10-23T14:47:01.585Z,15.8
2022-10-23T14:52:02.211Z,16.4
2022-10-23T14:57:01.508Z,16.1
2022-10-23T15:02:01.502Z,15.8
2022-10-23T15:07:01.544Z,16.0
2022-10-23T15:12:01.504Z,15.2
2022-10-23T15:17:01.940Z,16.5
2022-10-23T15:22:01.983Z,16.9
2022-10-23T15:27:01.566Z,17.1
2022-10-23T15:33:01.503Z,16.6
2022-10-23T15:38:01.494Z,18.3
2022-10-23T15:43:01.518Z,18.2
2022-10-23T15:48:01.524Z,18.7
2022-10-23T15:53:01.502Z,18.0
2022-10-23T15:58:01.558Z,18.8
2022-10-23T16:03:01.657Z,18.9
2022-10-23T16:08:01.571Z,18.7
2022-10-23T16:13:01.956Z,18.0
2022-10-23T16:18:01.516Z,19.4
2022-10-23T16:23:01.568Z,20.4
2022-10-23T16:28:01.516Z,25.3
2022-10-23T16:33:01.501Z,29.6
2022-10-23T16:38:01.519Z,32.0
2022-10-23T16:43:01.583Z,33.7
2022-10-23T16:48:02.124Z,34.0
2022-10-23T16:53:01.529Z,30.2
2022-10-23T16:58:01.514Z,26.7
2022-10-23T17:03:01.600Z,26.3
2022-10-23T17:08:01.529Z,26.7
2022-10-23T17:13:01.515Z,27.6
2022-10-23T17:18:01.557Z,28.1
2022-10-23T17:23:01.604Z,28.7
2022-10-23T17:28:01.617Z,28.5
2022-10-23T17:33:01.912Z,27.6
2022-10-23T17:38:01.394Z,26.7
2022-10-23T17:43:01.336Z,26.1
2022-10-23T17:48:01.184Z,26.8
2022-10-23T17:53:01.264Z,27.6
2022-10-23T17:58:01.162Z,29.9
2022-10-23T18:03:01.875Z,31.1
2022-10-23T18:08:01.419Z,30.9
2022-10-23T18:13:02.201Z,31.3
2022-10-23T18:18:01.439Z,32.8
2022-10-23T18:23:01.598Z,32.7
2022-10-23T18:28:02.389Z,32.1
2022-10-23T18:33:01.582Z,33.9
2022-10-23T18:38:01.606Z,34.8
2022-10-23T18:43:01.638Z,35.9
2022-10-23T18:48:01.557Z,36.7
2022-10-23T18:53:01.556Z,38.2
2022-10-23T18:58:01.572Z,38.1
2022-10-23T19:03:01.577Z,39.3
2022-10-23T19:08:01.544Z,39.4
2022-10-23T19:13:01.566Z,39.2
2022-10-23T19:23:01.669Z,39.0
2022-10-23T19:28:01.553Z,37.3
2022-10-23T19:33:01.263Z,37.0
2022-10-23T19:38:01.668Z,36.0
2022-10-23T19:43:01.558Z,37.2
2022-10-23T19:48:01.532Z,37.8
2022-10-23T19:53:01.586Z,38.9
2022-10-23T19:58:02.091Z,38.0
2022-10-23T20:03:01.554Z,39.2
2022-10-23T20:08:01.959Z,37.3
2022-10-23T20:13:18.535Z,36.8
2022-10-23T20:18:01.509Z,36.5
2022-10-23T20:23:01.573Z,36.2
2022-10-23T20:28:02.485Z,34.8
2022-10-23T20:33:01.512Z,35.1
2022-10-23T20:38:01.563Z,35.3
2022-10-23T20:43:01.553Z,34.5
2022-10-23T20:48:01.614Z,32.6
2022-10-23T20:53:01.529Z,31.8
2022-10-23T21:03:01.597Z,32.3
2022-10-23T21:08:01.594Z,33.0
2022-10-23T21:13:01.518Z,34.8
2022-10-23T21:18:04.931Z,35.7
2022-10-23T21:23:01.537Z,34.8
2022-10-23T21:28:01.530Z,32.5
2022-10-23T21:34:01.620Z,31.3
2022-10-23T21:39:01.551Z,31.6
2022-10-23T21:44:01.545Z,31.2
2022-10-23T21:54:01.513Z,33.1
2022-10-23T21:59:01.606Z,32.2
2022-10-23T22:04:01.516Z,31.4
2022-10-23T22:09:01.520Z,32.0
2022-10-23T22:14:01.535Z,30.7
2022-10-23T22:19:01.546Z,29.3
2022-10-23T22:24:01.624Z,29.8
2022-10-23T22:29:01.795Z,29.3
2022-10-23T22:34:08.420Z,27.4
2022-10-23T22:39:01.577Z,26.1
2022-10-23T22:44:02.135Z,24.0
2022-10-23T22:49:01.608Z,20.9
2022-10-23T22:54:01.693Z,18.0
2022-10-23T22:59:01.576Z,16.5
2022-10-23T23:04:04.513Z,16.9
2022-10-23T23:09:01.530Z,16.8
2022-10-23T23:14:02.377Z,17.5
2022-10-23T23:19:01.641Z,19.0
2022-10-23T23:24:01.616Z,20.6
2022-10-23T23:29:01.493Z,22.9
2022-10-23T23:34:01.400Z,24.6
2022-10-23T23:39:01.666Z,26.6
2022-10-23T23:44:01.507Z,28.0
2022-10-23T23:49:01.509Z,28.7
2022-10-23T23:54:01.695Z,28.1
2022-10-23T23:59:01.534Z,28.6
